sensor_id;sensor_type;location;lat;lon;timestamp;P1;durP1;ratioP1;P2;durP2;ratioP2
35644;SDS011;21764;52.042;6.830;2023-07-02T00:00:17;6.95;;;3.97;;
35644;SDS011;21764;52.042;6.830;2023-07-02T00:05:18;12.85;;;5.43;;
35644;SDS011;21764;52.042;6.830;2023-07-02T00:10:19;9.40;;;4.10;;
35644;SDS011;21764;52.042;6.830;2023-07-02T00:15:20;5.53;;;4.00;;
35644;SDS011;21764;52.042;6.830;2023-07-02T00:20:20;8.32;;;4.25;;
35644;SDS011;21764;52.042;6.830;2023-07-02T00:25:21;10.35;;;4.15;;
35644;SDS011;21764;52.042;6.830;2023-07-02T00:30:22;7.35;;;4.82;;
35644;SDS011;21764;52.042;6.830;2023-07-02T00:35:22;9.55;;;5.45;;
35644;SDS011;21764;52.042;6.830;2023-07-02T00:40:23;11.43;;;5.18;;
35644;SDS011;21764;52.042;6.830;2023-07-02T00:45:23;9.98;;;5.43;;
35644;SDS011;21764;52.042;6.830;2023-07-02T00:50:27;11.95;;;5.65;;
35644;SDS011;21764;52.042;6.830;2023-07-02T00:55:28;16.05;;;7.53;;
35644;SDS011;21764;52.042;6.830;2023-07-02T01:00:29;14.00;;;7.45;;
35644;SDS011;21764;52.042;6.830;2023-07-02T01:05:30;19.77;;;8.43;;
35644;SDS011;21764;52.042;6.830;2023-07-02T01:10:37;17.67;;;8.63;;
35644;SDS011;21764;52.042;6.830;2023-07-02T01:15:37;16.75;;;9.13;;
35644;SDS011;21764;52.042;6.830;2023-07-02T01:20:39;21.73;;;10.20;;
35644;SDS011;21764;52.042;6.830;2023-07-02T01:25:41;21.58;;;10.20;;
35644;SDS011;21764;52.042;6.830;2023-07-02T01:30:41;29.23;;;10.98;;
35644;SDS011;21764;52.042;6.830;2023-07-02T01:35:42;21.00;;;10.50;;
35644;SDS011;21764;52.042;6.830;2023-07-02T01:40:43;28.83;;;9.95;;
35644;SDS011;21764;52.042;6.830;2023-07-02T01:45:43;29.67;;;10.68;;
35644;SDS011;21764;52.042;6.830;2023-07-02T01:50:45;27.30;;;11.40;;
35644;SDS011;21764;52.042;6.830;2023-07-02T01:55:45;24.35;;;9.95;;
35644;SDS011;21764;52.042;6.830;2023-07-02T02:00:47;27.23;;;9.45;;
35644;SDS011;21764;52.042;6.830;2023-07-02T02:05:48;27.73;;;8.30;;
35644;SDS011;21764;52.042;6.830;2023-07-02T02:10:48;21.88;;;9.38;;
35644;SDS011;21764;52.042;6.830;2023-07-02T02:15:49;23.73;;;8.95;;
35644;SDS011;21764;52.042;6.830;2023-07-02T02:20:49;22.35;;;8.63;;
35644;SDS011;21764;52.042;6.830;2023-07-02T02:25:50;21.15;;;9.40;;
35644;SDS011;21764;52.042;6.830;2023-07-02T02:30:51;18.08;;;9.02;;
35644;SDS011;21764;52.042;6.830;2023-07-02T02:35:51;24.17;;;10.25;;
35644;SDS011;21764;52.042;6.830;2023-07-02T02:40:52;30.58;;;10.63;;
35644;SDS011;21764;52.042;6.830;2023-07-02T02:45:53;34.50;;;10.52;;
35644;SDS011;21764;52.042;6.830;2023-07-02T02:50:53;28.05;;;10.80;;
35644;SDS011;21764;52.042;6.830;2023-07-02T02:55:54;24.50;;;10.60;;
35644;SDS011;21764;52.042;6.830;2023-07-02T03:00:55;33.53;;;11.13;;
35644;SDS011;21764;52.042;6.830;2023-07-02T03:05:56;29.02;;;10.25;;
35644;SDS011;21764;52.042;6.830;2023-07-02T03:10:57;27.65;;;9.85;;
35644;SDS011;21764;52.042;6.830;2023-07-02T03:15:57;25.38;;;10.10;;
35644;SDS011;21764;52.042;6.830;2023-07-02T03:20:59;23.17;;;9.88;;
35644;SDS011;21764;52.042;6.830;2023-07-02T03:25:59;25.48;;;9.55;;
35644;SDS011;21764;52.042;6.830;2023-07-02T03:31:00;26.10;;;9.68;;
35644;SDS011;21764;52.042;6.830;2023-07-02T03:36:01;31.75;;;10.10;;
35644;SDS011;21764;52.042;6.830;2023-07-02T03:41:01;23.65;;;8.65;;
35644;SDS011;21764;52.042;6.830;2023-07-02T03:46:02;30.88;;;10.18;;
35644;SDS011;21764;52.042;6.830;2023-07-02T03:51:02;27.70;;;9.30;;
35644;SDS011;21764;52.042;6.830;2023-07-02T03:56:03;20.88;;;9.18;;
35644;SDS011;21764;52.042;6.830;2023-07-02T04:01:04;26.13;;;10.35;;
35644;SDS011;21764;52.042;6.830;2023-07-02T04:06:05;29.40;;;9.90;;
35644;SDS011;21764;52.042;6.830;2023-07-02T04:11:06;26.85;;;9.82;;
35644;SDS011;21764;52.042;6.830;2023-07-02T04:16:07;28.90;;;10.00;;
35644;SDS011;21764;52.042;6.830;2023-07-02T04:21:07;31.40;;;10.20;;
35644;SDS011;21764;52.042;6.830;2023-07-02T04:26:08;35.30;;;10.10;;
35644;SDS011;21764;52.042;6.830;2023-07-02T04:31:08;26.60;;;9.40;;
35644;SDS011;21764;52.042;6.830;2023-07-02T04:36:09;28.15;;;9.35;;
35644;SDS011;21764;52.042;6.830;2023-07-02T04:41:10;24.20;;;8.68;;
35644;SDS011;21764;52.042;6.830;2023-07-02T04:46:11;26.77;;;9.77;;
35644;SDS011;21764;52.042;6.830;2023-07-02T04:51:12;22.83;;;9.50;;
35644;SDS011;21764;52.042;6.830;2023-07-02T04:56:13;24.67;;;9.32;;
35644;SDS011;21764;52.042;6.830;2023-07-02T05:01:14;27.48;;;9.63;;
35644;SDS011;21764;52.042;6.830;2023-07-02T05:06:14;23.88;;;9.25;;
35644;SDS011;21764;52.042;6.830;2023-07-02T05:11:15;23.35;;;9.45;;
35644;SDS011;21764;52.042;6.830;2023-07-02T05:16:16;26.25;;;9.50;;
35644;SDS011;21764;52.042;6.830;2023-07-02T05:21:17;25.25;;;9.40;;
35644;SDS011;21764;52.042;6.830;2023-07-02T05:26:18;27.88;;;9.07;;
35644;SDS011;21764;52.042;6.830;2023-07-02T05:31:18;25.98;;;9.77;;
35644;SDS011;21764;52.042;6.830;2023-07-02T05:36:19;25.70;;;9.65;;
35644;SDS011;21764;52.042;6.830;2023-07-02T05:41:20;30.60;;;10.68;;
35644;SDS011;21764;52.042;6.830;2023-07-02T05:46:22;28.45;;;9.65;;
35644;SDS011;21764;52.042;6.830;2023-07-02T05:51:23;24.00;;;9.35;;
35644;SDS011;21764;52.042;6.830;2023-07-02T05:56:24;26.83;;;9.93;;
35644;SDS011;21764;52.042;6.830;2023-07-02T06:01:25;24.88;;;10.23;;
35644;SDS011;21764;52.042;6.830;2023-07-02T06:06:25;25.48;;;10.40;;
35644;SDS011;21764;52.042;6.830;2023-07-02T06:11:26;21.95;;;9.55;;
35644;SDS011;21764;52.042;6.830;2023-07-02T06:16:27;22.75;;;9.95;;
35644;SDS011;21764;52.042;6.830;2023-07-02T06:21:27;20.75;;;9.02;;
35644;SDS011;21764;52.042;6.830;2023-07-02T06:26:30;27.00;;;9.20;;
35644;SDS011;21764;52.042;6.830;2023-07-02T06:31:32;20.88;;;9.68;;
35644;SDS011;21764;52.042;6.830;2023-07-02T06:36:32;23.75;;;8.90;;
35644;SDS011;21764;52.042;6.830;2023-07-02T06:41:33;33.08;;;9.88;;
35644;SDS011;21764;52.042;6.830;2023-07-02T06:46:34;23.63;;;9.32;;
35644;SDS011;21764;52.042;6.830;2023-07-02T06:51:34;20.25;;;9.43;;
35644;SDS011;21764;52.042;6.830;2023-07-02T06:56:35;24.17;;;9.65;;
35644;SDS011;21764;52.042;6.830;2023-07-02T07:01:35;28.17;;;9.05;;
35644;SDS011;21764;52.042;6.830;2023-07-02T07:06:36;20.52;;;9.10;;
35644;SDS011;21764;52.042;6.830;2023-07-02T07:11:38;22.08;;;8.98;;
35644;SDS011;21764;52.042;6.830;2023-07-02T07:16:38;27.42;;;9.63;;
35644;SDS011;21764;52.042;6.830;2023-07-02T07:21:39;21.73;;;9.07;;
35644;SDS011;21764;52.042;6.830;2023-07-02T07:26:40;21.48;;;9.75;;
35644;SDS011;21764;52.042;6.830;2023-07-02T07:31:40;24.65;;;9.80;;
35644;SDS011;21764;52.042;6.830;2023-07-02T07:36:41;24.20;;;8.73;;
35644;SDS011;21764;52.042;6.830;2023-07-02T07:41:45;25.25;;;8.88;;
35644;SDS011;21764;52.042;6.830;2023-07-02T07:46:48;23.65;;;8.65;;
35644;SDS011;21764;52.042;6.830;2023-07-02T07:51:48;23.17;;;8.50;;
35644;SDS011;21764;52.042;6.830;2023-07-02T07:56:49;26.13;;;8.85;;
35644;SDS011;21764;52.042;6.830;2023-07-02T08:01:50;21.30;;;8.55;;
35644;SDS011;21764;52.042;6.830;2023-07-02T08:06:50;25.27;;;8.75;;
35644;SDS011;21764;52.042;6.830;2023-07-02T08:11:51;26.40;;;9.40;;
35644;SDS011;21764;52.042;6.830;2023-07-02T08:16:52;19.23;;;8.32;;
35644;SDS011;21764;52.042;6.830;2023-07-02T08:21:52;23.58;;;8.35;;
35644;SDS011;21764;52.042;6.830;2023-07-02T08:26:53;19.27;;;8.10;;
35644;SDS011;21764;52.042;6.830;2023-07-02T08:31:54;17.85;;;8.93;;
35644;SDS011;21764;52.042;6.830;2023-07-02T08:36:54;17.20;;;7.20;;
35644;SDS011;21764;52.042;6.830;2023-07-02T08:41:55;17.73;;;8.57;;
35644;SDS011;21764;52.042;6.830;2023-07-02T08:46:55;23.05;;;7.32;;
35644;SDS011;21764;52.042;6.830;2023-07-02T08:51:57;14.80;;;7.18;;
35644;SDS011;21764;52.042;6.830;2023-07-02T08:56:58;18.75;;;7.30;;
35644;SDS011;21764;52.042;6.830;2023-07-02T09:02:00;17.30;;;7.90;;
35644;SDS011;21764;52.042;6.830;2023-07-02T09:07:04;22.23;;;10.48;;
35644;SDS011;21764;52.042;6.830;2023-07-02T09:12:07;19.48;;;9.68;;
35644;SDS011;21764;52.042;6.830;2023-07-02T09:17:08;19.45;;;8.60;;
35644;SDS011;21764;52.042;6.830;2023-07-02T09:22:11;19.17;;;7.25;;
35644;SDS011;21764;52.042;6.830;2023-07-02T09:27:15;16.05;;;7.28;;
35644;SDS011;21764;52.042;6.830;2023-07-02T09:32:26;21.38;;;7.40;;
35644;SDS011;21764;52.042;6.830;2023-07-02T09:37:27;21.08;;;8.27;;
35644;SDS011;21764;52.042;6.830;2023-07-02T09:42:28;17.15;;;7.25;;
35644;SDS011;21764;52.042;6.830;2023-07-02T09:47:29;23.25;;;11.77;;
35644;SDS011;21764;52.042;6.830;2023-07-02T09:52:30;18.27;;;7.13;;
35644;SDS011;21764;52.042;6.830;2023-07-02T09:57:32;20.80;;;10.82;;
35644;SDS011;21764;52.042;6.830;2023-07-02T10:02:32;22.73;;;16.35;;
35644;SDS011;21764;52.042;6.830;2023-07-02T10:07:33;13.75;;;6.47;;
35644;SDS011;21764;52.042;6.830;2023-07-02T10:12:34;15.57;;;6.70;;
35644;SDS011;21764;52.042;6.830;2023-07-02T10:17:53;21.92;;;6.50;;
35644;SDS011;21764;52.042;6.830;2023-07-02T10:22:58;15.18;;;5.85;;
35644;SDS011;21764;52.042;6.830;2023-07-02T10:27:59;18.02;;;6.65;;
35644;SDS011;21764;52.042;6.830;2023-07-02T10:33:10;16.25;;;6.53;;
35644;SDS011;21764;52.042;6.830;2023-07-02T10:38:18;14.50;;;6.32;;
35644;SDS011;21764;52.042;6.830;2023-07-02T10:43:25;15.60;;;5.85;;
35644;SDS011;21764;52.042;6.830;2023-07-02T10:48:29;14.40;;;5.95;;
35644;SDS011;21764;52.042;6.830;2023-07-02T10:53:30;14.88;;;5.93;;
35644;SDS011;21764;52.042;6.830;2023-07-02T10:58:31;14.00;;;6.55;;
35644;SDS011;21764;52.042;6.830;2023-07-02T11:03:41;15.25;;;5.88;;
35644;SDS011;21764;52.042;6.830;2023-07-02T11:08:42;15.88;;;6.32;;
35644;SDS011;21764;52.042;6.830;2023-07-02T11:13:46;15.73;;;5.70;;
35644;SDS011;21764;52.042;6.830;2023-07-02T11:18:50;12.18;;;5.93;;
35644;SDS011;21764;52.042;6.830;2023-07-02T11:24:00;13.52;;;6.22;;
35644;SDS011;21764;52.042;6.830;2023-07-02T11:29:02;13.90;;;5.85;;
35644;SDS011;21764;52.042;6.830;2023-07-02T11:34:13;13.45;;;5.97;;
35644;SDS011;21764;52.042;6.830;2023-07-02T11:39:15;14.43;;;5.60;;
35644;SDS011;21764;52.042;6.830;2023-07-02T11:44:16;13.20;;;5.68;;
35644;SDS011;21764;52.042;6.830;2023-07-02T11:49:17;13.85;;;5.63;;
35644;SDS011;21764;52.042;6.830;2023-07-02T11:54:18;16.10;;;5.80;;
35644;SDS011;21764;52.042;6.830;2023-07-02T11:59:19;14.35;;;5.55;;
35644;SDS011;21764;52.042;6.830;2023-07-02T12:04:20;12.10;;;5.72;;
35644;SDS011;21764;52.042;6.830;2023-07-02T12:09:21;14.13;;;6.13;;
35644;SDS011;21764;52.042;6.830;2023-07-02T12:14:21;14.07;;;5.45;;
35644;SDS011;21764;52.042;6.830;2023-07-02T12:19:22;15.15;;;6.18;;
35644;SDS011;21764;52.042;6.830;2023-07-02T12:24:23;12.63;;;5.88;;
35644;SDS011;21764;52.042;6.830;2023-07-02T12:29:23;18.15;;;5.75;;
35644;SDS011;21764;52.042;6.830;2023-07-02T12:34:24;14.15;;;6.00;;
35644;SDS011;21764;52.042;6.830;2023-07-02T12:39:25;13.07;;;5.50;;
35644;SDS011;21764;52.042;6.830;2023-07-02T12:44:26;14.90;;;5.57;;
35644;SDS011;21764;52.042;6.830;2023-07-02T12:49:27;17.67;;;5.25;;
35644;SDS011;21764;52.042;6.830;2023-07-02T12:54:28;15.82;;;5.78;;
35644;SDS011;21764;52.042;6.830;2023-07-02T12:59:29;13.98;;;5.78;;
35644;SDS011;21764;52.042;6.830;2023-07-02T13:04:29;13.55;;;5.50;;
35644;SDS011;21764;52.042;6.830;2023-07-02T13:09:30;15.10;;;5.10;;
35644;SDS011;21764;52.042;6.830;2023-07-02T13:14:31;11.55;;;5.43;;
35644;SDS011;21764;52.042;6.830;2023-07-02T13:19:32;11.75;;;5.03;;
35644;SDS011;21764;52.042;6.830;2023-07-02T13:24:33;11.50;;;5.28;;
35644;SDS011;21764;52.042;6.830;2023-07-02T13:29:37;9.90;;;4.18;;
35644;SDS011;21764;52.042;6.830;2023-07-02T13:34:38;13.50;;;4.90;;
35644;SDS011;21764;52.042;6.830;2023-07-02T13:39:39;10.00;;;5.35;;
35644;SDS011;21764;52.042;6.830;2023-07-02T13:44:40;11.88;;;4.78;;
35644;SDS011;21764;52.042;6.830;2023-07-02T13:49:40;12.65;;;4.50;;
35644;SDS011;21764;52.042;6.830;2023-07-02T13:54:41;12.32;;;5.13;;
35644;SDS011;21764;52.042;6.830;2023-07-02T13:59:42;9.07;;;4.05;;
35644;SDS011;21764;52.042;6.830;2023-07-02T14:04:42;9.27;;;4.38;;
35644;SDS011;21764;52.042;6.830;2023-07-02T14:09:43;13.48;;;4.90;;
35644;SDS011;21764;52.042;6.830;2023-07-02T14:14:44;14.13;;;4.78;;
35644;SDS011;21764;52.042;6.830;2023-07-02T14:19:46;9.95;;;4.93;;
35644;SDS011;21764;52.042;6.830;2023-07-02T14:24:47;11.55;;;4.60;;
35644;SDS011;21764;52.042;6.830;2023-07-02T14:29:47;12.27;;;5.22;;
35644;SDS011;21764;52.042;6.830;2023-07-02T14:34:48;9.65;;;4.25;;
35644;SDS011;21764;52.042;6.830;2023-07-02T14:39:49;9.45;;;4.38;;
35644;SDS011;21764;52.042;6.830;2023-07-02T14:44:49;10.77;;;4.18;;
35644;SDS011;21764;52.042;6.830;2023-07-02T14:49:50;10.35;;;4.35;;
35644;SDS011;21764;52.042;6.830;2023-07-02T14:54:51;14.02;;;4.28;;
35644;SDS011;21764;52.042;6.830;2023-07-02T14:59:52;13.60;;;5.18;;
35644;SDS011;21764;52.042;6.830;2023-07-02T15:04:53;9.60;;;4.32;;
35644;SDS011;21764;52.042;6.830;2023-07-02T15:09:54;10.63;;;4.70;;
35644;SDS011;21764;52.042;6.830;2023-07-02T15:14:55;16.15;;;4.63;;
35644;SDS011;21764;52.042;6.830;2023-07-02T15:19:56;13.88;;;5.68;;
35644;SDS011;21764;52.042;6.830;2023-07-02T15:24:58;14.40;;;5.18;;
35644;SDS011;21764;52.042;6.830;2023-07-02T15:29:59;11.57;;;4.63;;
35644;SDS011;21764;52.042;6.830;2023-07-02T15:34:59;12.50;;;5.03;;
35644;SDS011;21764;52.042;6.830;2023-07-02T15:40:00;10.35;;;4.30;;
35644;SDS011;21764;52.042;6.830;2023-07-02T15:45:01;14.32;;;5.18;;
35644;SDS011;21764;52.042;6.830;2023-07-02T15:50:02;11.63;;;4.93;;
35644;SDS011;21764;52.042;6.830;2023-07-02T15:55:03;10.02;;;4.70;;
35644;SDS011;21764;52.042;6.830;2023-07-02T16:00:05;11.93;;;4.63;;
35644;SDS011;21764;52.042;6.830;2023-07-02T16:05:06;11.02;;;4.55;;
35644;SDS011;21764;52.042;6.830;2023-07-02T16:10:08;17.60;;;4.97;;
35644;SDS011;21764;52.042;6.830;2023-07-02T16:15:10;16.33;;;5.30;;
35644;SDS011;21764;52.042;6.830;2023-07-02T16:20:10;14.85;;;5.32;;
35644;SDS011;21764;52.042;6.830;2023-07-02T16:25:14;16.38;;;5.10;;
35644;SDS011;21764;52.042;6.830;2023-07-02T16:30:15;15.27;;;5.60;;
35644;SDS011;21764;52.042;6.830;2023-07-02T16:35:16;14.30;;;5.60;;
35644;SDS011;21764;52.042;6.830;2023-07-02T16:40:16;15.20;;;5.22;;
35644;SDS011;21764;52.042;6.830;2023-07-02T16:45:18;19.50;;;5.30;;
35644;SDS011;21764;52.042;6.830;2023-07-02T16:50:19;11.25;;;5.10;;
35644;SDS011;21764;52.042;6.830;2023-07-02T16:55:20;13.68;;;5.85;;
35644;SDS011;21764;52.042;6.830;2023-07-02T17:00:20;16.85;;;5.25;;
35644;SDS011;21764;52.042;6.830;2023-07-02T17:05:21;12.88;;;5.68;;
35644;SDS011;21764;52.042;6.830;2023-07-02T17:10:22;13.73;;;5.82;;
35644;SDS011;21764;52.042;6.830;2023-07-02T17:15:22;20.10;;;5.97;;
35644;SDS011;21764;52.042;6.830;2023-07-02T17:20:23;13.65;;;6.03;;
35644;SDS011;21764;52.042;6.830;2023-07-02T17:25:25;14.00;;;5.80;;
35644;SDS011;21764;52.042;6.830;2023-07-02T17:30:25;16.20;;;6.15;;
35644;SDS011;21764;52.042;6.830;2023-07-02T17:35:26;15.38;;;6.40;;
35644;SDS011;21764;52.042;6.830;2023-07-02T17:40:27;19.08;;;5.97;;
35644;SDS011;21764;52.042;6.830;2023-07-02T17:45:27;16.17;;;6.07;;
35644;SDS011;21764;52.042;6.830;2023-07-02T17:50:28;17.05;;;5.70;;
35644;SDS011;21764;52.042;6.830;2023-07-02T17:55:29;14.25;;;5.35;;
35644;SDS011;21764;52.042;6.830;2023-07-02T18:00:29;12.30;;;5.38;;
35644;SDS011;21764;52.042;6.830;2023-07-02T18:05:30;15.90;;;6.20;;
35644;SDS011;21764;52.042;6.830;2023-07-02T18:10:31;12.43;;;5.60;;
35644;SDS011;21764;52.042;6.830;2023-07-02T18:15:31;16.60;;;5.72;;
35644;SDS011;21764;52.042;6.830;2023-07-02T18:20:32;15.52;;;6.28;;
35644;SDS011;21764;52.042;6.830;2023-07-02T18:25:32;20.38;;;5.82;;
35644;SDS011;21764;52.042;6.830;2023-07-02T18:30:33;13.40;;;5.70;;
35644;SDS011;21764;52.042;6.830;2023-07-02T18:35:38;17.50;;;6.55;;
35644;SDS011;21764;52.042;6.830;2023-07-02T18:40:40;15.25;;;5.95;;
35644;SDS011;21764;52.042;6.830;2023-07-02T18:45:41;18.63;;;6.97;;
35644;SDS011;21764;52.042;6.830;2023-07-02T18:50:41;13.77;;;6.07;;
35644;SDS011;21764;52.042;6.830;2023-07-02T18:55:42;14.50;;;6.60;;
35644;SDS011;21764;52.042;6.830;2023-07-02T19:00:53;14.98;;;6.03;;
35644;SDS011;21764;52.042;6.830;2023-07-02T19:05:54;20.25;;;6.88;;
35644;SDS011;21764;52.042;6.830;2023-07-02T19:11:02;17.45;;;6.45;;
35644;SDS011;21764;52.042;6.830;2023-07-02T19:16:05;16.38;;;6.50;;
35644;SDS011;21764;52.042;6.830;2023-07-02T19:21:06;24.70;;;6.57;;
35644;SDS011;21764;52.042;6.830;2023-07-02T19:26:12;14.88;;;6.25;;
35644;SDS011;21764;52.042;6.830;2023-07-02T19:31:13;21.63;;;6.63;;
35644;SDS011;21764;52.042;6.830;2023-07-02T19:36:14;15.88;;;6.68;;
35644;SDS011;21764;52.042;6.830;2023-07-02T19:41:14;18.02;;;6.40;;
35644;SDS011;21764;52.042;6.830;2023-07-02T19:46:15;23.33;;;6.38;;
35644;SDS011;21764;52.042;6.830;2023-07-02T19:51:16;18.45;;;6.57;;
35644;SDS011;21764;52.042;6.830;2023-07-02T19:56:17;17.45;;;6.90;;
35644;SDS011;21764;52.042;6.830;2023-07-02T20:01:24;21.23;;;7.28;;
35644;SDS011;21764;52.042;6.830;2023-07-02T20:06:25;17.75;;;6.82;;
35644;SDS011;21764;52.042;6.830;2023-07-02T20:11:30;21.48;;;7.15;;
35644;SDS011;21764;52.042;6.830;2023-07-02T20:21:31;20.50;;;6.72;;
35644;SDS011;21764;52.042;6.830;2023-07-02T20:26:32;18.27;;;7.22;;
35644;SDS011;21764;52.042;6.830;2023-07-02T20:31:33;21.02;;;7.18;;
35644;SDS011;21764;52.042;6.830;2023-07-02T20:36:34;21.95;;;7.60;;
35644;SDS011;21764;52.042;6.830;2023-07-02T20:41:35;25.45;;;8.00;;
35644;SDS011;21764;52.042;6.830;2023-07-02T20:46:36;26.08;;;7.75;;
35644;SDS011;21764;52.042;6.830;2023-07-02T20:51:37;30.02;;;8.02;;
35644;SDS011;21764;52.042;6.830;2023-07-02T20:56:38;21.63;;;7.70;;
35644;SDS011;21764;52.042;6.830;2023-07-02T21:01:39;27.90;;;7.60;;
35644;SDS011;21764;52.042;6.830;2023-07-02T21:06:39;22.50;;;7.45;;
35644;SDS011;21764;52.042;6.830;2023-07-02T21:11:40;23.15;;;8.23;;
35644;SDS011;21764;52.042;6.830;2023-07-02T21:16:41;32.50;;;8.38;;
35644;SDS011;21764;52.042;6.830;2023-07-02T21:21:41;23.63;;;7.93;;
35644;SDS011;21764;52.042;6.830;2023-07-02T21:26:45;26.60;;;7.67;;
35644;SDS011;21764;52.042;6.830;2023-07-02T21:31:48;26.35;;;8.07;;
35644;SDS011;21764;52.042;6.830;2023-07-02T21:36:50;28.50;;;8.52;;
35644;SDS011;21764;52.042;6.830;2023-07-02T21:41:50;23.13;;;7.57;;
35644;SDS011;21764;52.042;6.830;2023-07-02T21:46:51;21.38;;;7.20;;
35644;SDS011;21764;52.042;6.830;2023-07-02T21:51:52;23.08;;;7.55;;
35644;SDS011;21764;52.042;6.830;2023-07-02T21:56:53;24.90;;;6.93;;
35644;SDS011;21764;52.042;6.830;2023-07-02T22:01:53;35.72;;;7.60;;
35644;SDS011;21764;52.042;6.830;2023-07-02T22:06:54;29.88;;;7.68;;
35644;SDS011;21764;52.042;6.830;2023-07-02T22:11:56;32.65;;;8.52;;
35644;SDS011;21764;52.042;6.830;2023-07-02T22:16:57;23.02;;;7.38;;
35644;SDS011;21764;52.042;6.830;2023-07-02T22:22:07;21.27;;;8.38;;
35644;SDS011;21764;52.042;6.830;2023-07-02T22:27:08;30.98;;;10.05;;
35644;SDS011;21764;52.042;6.830;2023-07-02T22:32:09;24.27;;;7.72;;
35644;SDS011;21764;52.042;6.830;2023-07-02T22:37:10;29.88;;;8.90;;
35644;SDS011;21764;52.042;6.830;2023-07-02T22:42:10;21.92;;;7.75;;
35644;SDS011;21764;52.042;6.830;2023-07-02T22:47:11;32.53;;;8.30;;
35644;SDS011;21764;52.042;6.830;2023-07-02T22:52:12;24.00;;;7.55;;
35644;SDS011;21764;52.042;6.830;2023-07-02T22:57:12;24.73;;;8.20;;
35644;SDS011;21764;52.042;6.830;2023-07-02T23:02:13;30.77;;;8.65;;
35644;SDS011;21764;52.042;6.830;2023-07-02T23:07:14;23.90;;;7.57;;
35644;SDS011;21764;52.042;6.830;2023-07-02T23:12:15;27.55;;;7.35;;
35644;SDS011;21764;52.042;6.830;2023-07-02T23:17:15;29.83;;;8.05;;
35644;SDS011;21764;52.042;6.830;2023-07-02T23:22:16;27.65;;;8.57;;
35644;SDS011;21764;52.042;6.830;2023-07-02T23:27:18;30.63;;;7.88;;
35644;SDS011;21764;52.042;6.830;2023-07-02T23:32:19;34.70;;;8.13;;
35644;SDS011;21764;52.042;6.830;2023-07-02T23:37:20;25.73;;;7.50;;
35644;SDS011;21764;52.042;6.830;2023-07-02T23:42:21;28.55;;;8.63;;
35644;SDS011;21764;52.042;6.830;2023-07-02T23:47:22;27.63;;;7.60;;
35644;SDS011;21764;52.042;6.830;2023-07-02T23:52:23;30.05;;;7.93;;
35644;SDS011;21764;52.042;6.830;2023-07-02T23:57:24;28.63;;;7.13;;
